Prompton, Pennsylvania
Current Conditions -  °F | °C
As of 5:54 AM on Thursday 23 Oct 2014 (Local Time) from KAVP Reporting Station
Light Rain Light Rain  
Wind Chill: 42°   Ceiling: 1200
Heat Index: 46°   Visibility: 6mi
Dew Point: 42°   Wind: 8mph
Humidity: 86%   Direction: 340°NNW
Pressure: 29.86"   Gusts: NA
Location:  41.58°N, 75.33°W
Report Text: KAVP 230954Z AUTO 34007KT 6SM -RA BR OVC012 08/06 A2986 RMK AO2 SLP112 P0009 T00780056
Loading
Personal Weather Stations






























Interactive Weather Map New forecast layout! Learn more

10-Day Weather Forecast

Advertisements
Track Severe Weather on mobile